sensor_id;sensor_type;location;lat;lon;timestamp;pressure;altitude;pressure_sealevel;temperature;humidity
41688;BME280;27371;42.686;23.362;2023-03-29T00:00:06;162126.63;;;-0.29;64.08
41688;BME280;27371;42.686;23.362;2023-03-29T00:02:35;162133.25;;;-0.26;64.10
41688;BME280;27371;42.686;23.362;2023-03-29T00:05:00;162119.97;;;-0.31;64.08
41688;BME280;27371;42.686;23.362;2023-03-29T00:07:28;162133.25;;;-0.26;64.20
41688;BME280;27371;42.686;23.362;2023-03-29T00:09:54;162121.31;;;-0.31;63.95
41688;BME280;27371;42.686;23.362;2023-03-29T00:12:20;162072.25;;;-0.50;63.93
41688;BME280;27371;42.686;23.362;2023-03-29T00:14:46;162123.97;;;-0.30;63.33
41688;BME280;27371;42.686;23.362;2023-03-29T00:17:11;162080.22;;;-0.47;63.94
41688;BME280;27371;42.686;23.362;2023-03-29T00:19:37;161982.03;;;-0.84;64.58
41688;BME280;27371;42.686;23.362;2023-03-29T00:22:03;162012.53;;;-0.73;64.76
41688;BME280;27371;42.686;23.362;2023-03-29T00:24:30;162028.44;;;-0.67;64.86
41688;BME280;27371;42.686;23.362;2023-03-29T00:26:56;162028.44;;;-0.67;64.66
41688;BME280;27371;42.686;23.362;2023-03-29T00:29:21;162054.97;;;-0.56;64.60
41688;BME280;27371;42.686;23.362;2023-03-29T00:31:47;162060.31;;;-0.54;64.10
41688;BME280;27371;42.686;23.362;2023-03-29T00:34:21;162066.94;;;-0.52;63.91
41688;BME280;27371;42.686;23.362;2023-03-29T00:36:47;162057.63;;;-0.55;63.96
41688;BME280;27371;42.686;23.362;2023-03-29T00:39:19;162056.31;;;-0.56;63.82
41688;BME280;27371;42.686;23.362;2023-03-29T00:41:48;162060.31;;;-0.54;63.64
41688;BME280;27371;42.686;23.362;2023-03-29T00:47:41;162053.66;;;-0.57;63.32
41688;BME280;27371;42.686;23.362;2023-03-29T00:50:19;162025.81;;;-0.68;63.37
41688;BME280;27371;42.686;23.362;2023-03-29T00:53:12;162045.72;;;-0.60;63.11
41688;BME280;27371;42.686;23.362;2023-03-29T00:58:06;162081.53;;;-0.46;62.45
41688;BME280;27371;42.686;23.362;2023-03-29T01:00:37;162082.84;;;-0.46;62.67
41688;BME280;27371;42.686;23.362;2023-03-29T01:03:08;162089.47;;;-0.43;61.99
41688;BME280;27371;42.686;23.362;2023-03-29T01:05:43;162102.75;;;-0.38;61.75
41688;BME280;27371;42.686;23.362;2023-03-29T01:08:15;162106.72;;;-0.36;61.93
41688;BME280;27371;42.686;23.362;2023-03-29T01:10:47;162089.47;;;-0.43;61.70
41688;BME280;27371;42.686;23.362;2023-03-29T01:13:19;162086.84;;;-0.44;62.08
41688;BME280;27371;42.686;23.362;2023-03-29T01:15:52;162104.06;;;-0.37;61.69
41688;BME280;27371;42.686;23.362;2023-03-29T01:18:18;162098.75;;;-0.39;61.93
41688;BME280;27371;42.686;23.362;2023-03-29T01:28:38;162084.16;;;-0.45;61.74
41688;BME280;27371;42.686;23.362;2023-03-29T01:31:10;162019.16;;;-0.70;61.68
41688;BME280;27371;42.686;23.362;2023-03-29T01:33:46;162003.25;;;-0.76;63.06
41688;BME280;27371;42.686;23.362;2023-03-29T01:36:28;161978.03;;;-0.86;63.10
41688;BME280;27371;42.686;23.362;2023-03-29T01:38:59;161997.94;;;-0.78;62.85
41688;BME280;27371;42.686;23.362;2023-03-29T01:41:45;162016.53;;;-0.71;62.24
41688;BME280;27371;42.686;23.362;2023-03-29T01:47:26;162005.91;;;-0.75;61.82
41688;BME280;27371;42.686;23.362;2023-03-29T01:50:18;162023.16;;;-0.69;61.40
41688;BME280;27371;42.686;23.362;2023-03-29T01:55:54;162015.22;;;-0.72;61.42
41688;BME280;27371;42.686;23.362;2023-03-29T01:58:22;162023.16;;;-0.69;61.40
41688;BME280;27371;42.686;23.362;2023-03-29T02:00:51;162003.25;;;-0.76;61.29
41688;BME280;27371;42.686;23.362;2023-03-29T02:03:23;161996.63;;;-0.79;61.35
41688;BME280;27371;42.686;23.362;2023-03-29T02:05:51;162017.84;;;-0.71;61.24
41688;BME280;27371;42.686;23.362;2023-03-29T02:08:18;162023.16;;;-0.69;61.11
41688;BME280;27371;42.686;23.362;2023-03-29T02:10:45;162017.84;;;-0.71;61.18
41688;BME280;27371;42.686;23.362;2023-03-29T02:13:11;162037.75;;;-0.63;60.99
41688;BME280;27371;42.686;23.362;2023-03-29T02:15:37;162048.34;;;-0.59;61.04
41688;BME280;27371;42.686;23.362;2023-03-29T02:18:05;161803.03;;;-1.53;60.79
41688;BME280;27371;42.686;23.362;2023-03-29T02:20:35;162057.63;;;-0.55;60.79
41688;BME280;27371;42.686;23.362;2023-03-29T02:23:22;162064.25;;;-0.53;60.60
41688;BME280;27371;42.686;23.362;2023-03-29T02:25:52;162066.94;;;-0.52;60.32
41688;BME280;27371;42.686;23.362;2023-03-29T02:28:19;162064.25;;;-0.53;60.36
41688;BME280;27371;42.686;23.362;2023-03-29T02:31:01;162061.63;;;-0.54;60.47
41688;BME280;27371;42.686;23.362;2023-03-29T02:33:52;162069.56;;;-0.51;60.40
41688;BME280;27371;42.686;23.362;2023-03-29T02:36:49;162064.25;;;-0.53;60.00
41688;BME280;27371;42.686;23.362;2023-03-29T02:39:16;162069.56;;;-0.51;59.83
41688;BME280;27371;42.686;23.362;2023-03-29T02:41:48;162045.72;;;-0.60;60.17
41688;BME280;27371;42.686;23.362;2023-03-29T02:44:20;162029.81;;;-0.66;59.83
41688;BME280;27371;42.686;23.362;2023-03-29T02:46:48;161974.09;;;-0.87;59.91
41688;BME280;27371;42.686;23.362;2023-03-29T02:49:15;161935.59;;;-1.02;60.77
41688;BME280;27371;42.686;23.362;2023-03-29T02:51:41;161932.97;;;-1.03;61.63
41688;BME280;27371;42.686;23.362;2023-03-29T02:54:14;161942.22;;;-1.00;61.38
41688;BME280;27371;42.686;23.362;2023-03-29T02:56:46;161958.19;;;-0.94;61.19
41688;BME280;27371;42.686;23.362;2023-03-29T02:59:14;161980.72;;;-0.85;60.89
41688;BME280;27371;42.686;23.362;2023-03-29T03:01:43;161956.81;;;-0.94;60.61
41688;BME280;27371;42.686;23.362;2023-03-29T03:04:09;161991.31;;;-0.81;60.61
41688;BME280;27371;42.686;23.362;2023-03-29T03:06:36;161990.00;;;-0.81;60.90
41688;BME280;27371;42.686;23.362;2023-03-29T03:09:03;161986.00;;;-0.83;60.42
41688;BME280;27371;42.686;23.362;2023-03-29T03:11:29;161986.00;;;-0.83;60.81
41688;BME280;27371;42.686;23.362;2023-03-29T03:13:55;161991.31;;;-0.81;61.19
41688;BME280;27371;42.686;23.362;2023-03-29T03:16:21;161987.34;;;-0.82;61.09
41688;BME280;27371;42.686;23.362;2023-03-29T03:18:46;161974.09;;;-0.87;61.42
41688;BME280;27371;42.686;23.362;2023-03-29T03:21:14;161958.19;;;-0.94;61.65
41688;BME280;27371;42.686;23.362;2023-03-29T03:23:40;161975.41;;;-0.87;61.88
41688;BME280;27371;42.686;23.362;2023-03-29T03:26:06;161964.78;;;-0.91;62.18
41688;BME280;27371;42.686;23.362;2023-03-29T03:28:32;161980.72;;;-0.85;62.13
41688;BME280;27371;42.686;23.362;2023-03-29T03:30:58;161980.72;;;-0.85;62.08
41688;BME280;27371;42.686;23.362;2023-03-29T03:33:24;162001.94;;;-0.77;61.91
41688;BME280;27371;42.686;23.362;2023-03-29T03:35:51;162009.91;;;-0.74;61.61
41688;BME280;27371;42.686;23.362;2023-03-29T03:38:16;161960.81;;;-0.93;61.55
41688;BME280;27371;42.686;23.362;2023-03-29T03:40:42;162028.44;;;-0.67;60.95
41688;BME280;27371;42.686;23.362;2023-03-29T03:43:08;162032.44;;;-0.65;60.72
41688;BME280;27371;42.686;23.362;2023-03-29T03:45:34;162023.16;;;-0.69;60.60
41688;BME280;27371;42.686;23.362;2023-03-29T03:47:59;161999.25;;;-0.78;60.45
41688;BME280;27371;42.686;23.362;2023-03-29T03:50:25;162037.75;;;-0.63;59.94
41688;BME280;27371;42.686;23.362;2023-03-29T03:52:51;162032.44;;;-0.65;59.44
41688;BME280;27371;42.686;23.362;2023-03-29T03:55:16;162015.22;;;-0.72;59.58
41688;BME280;27371;42.686;23.362;2023-03-29T03:57:42;162031.13;;;-0.65;58.88
41688;BME280;27371;42.686;23.362;2023-03-29T04:00:08;162040.38;;;-0.62;58.56
41688;BME280;27371;42.686;23.362;2023-03-29T04:02:44;162041.72;;;-0.61;58.41
41688;BME280;27371;42.686;23.362;2023-03-29T04:05:10;162033.75;;;-0.64;58.78
41688;BME280;27371;42.686;23.362;2023-03-29T04:07:35;162062.94;;;-0.53;57.85
41688;BME280;27371;42.686;23.362;2023-03-29T04:10:01;162044.38;;;-0.60;57.51
41688;BME280;27371;42.686;23.362;2023-03-29T04:12:26;162025.81;;;-0.68;57.21
41688;BME280;27371;42.686;23.362;2023-03-29T04:14:52;162186.31;;;-0.06;62.09
41688;BME280;27371;42.686;23.362;2023-03-29T04:17:17;162183.69;;;-0.07;56.96
41688;BME280;27371;42.686;23.362;2023-03-29T04:19:43;162157.13;;;-0.17;56.68
41688;BME280;27371;42.686;23.362;2023-03-29T04:22:08;162112.03;;;-0.34;56.72
41688;BME280;27371;42.686;23.362;2023-03-29T04:24:34;162119.97;;;-0.31;56.22
41688;BME280;27371;42.686;23.362;2023-03-29T04:27:00;162090.78;;;-0.42;56.52
41688;BME280;27371;42.686;23.362;2023-03-29T04:29:25;162064.25;;;-0.53;56.54
41688;BME280;27371;42.686;23.362;2023-03-29T04:31:51;162052.34;;;-0.57;56.47
41688;BME280;27371;42.686;23.362;2023-03-29T04:34:17;162029.81;;;-0.66;57.28
41688;BME280;27371;42.686;23.362;2023-03-29T04:36:42;162004.56;;;-0.76;57.17
41688;BME280;27371;42.686;23.362;2023-03-29T04:39:08;162005.91;;;-0.75;57.50
41688;BME280;27371;42.686;23.362;2023-03-29T04:41:34;162013.84;;;-0.72;57.01
41688;BME280;27371;42.686;23.362;2023-03-29T04:43:59;162005.91;;;-0.75;57.49
41688;BME280;27371;42.686;23.362;2023-03-29T04:46:26;162017.84;;;-0.71;57.10
41688;BME280;27371;42.686;23.362;2023-03-29T04:48:52;162080.22;;;-0.47;57.47
41688;BME280;27371;42.686;23.362;2023-03-29T04:51:18;162082.84;;;-0.46;57.06
41688;BME280;27371;42.686;23.362;2023-03-29T04:53:47;162179.72;;;-0.08;57.21
41688;BME280;27371;42.686;23.362;2023-03-29T04:56:13;162337.66;;;0.53;55.47
41688;BME280;27371;42.686;23.362;2023-03-29T04:58:39;162419.97;;;0.84;53.26
41688;BME280;27371;42.686;23.362;2023-03-29T05:01:06;162559.44;;;1.38;51.54
41688;BME280;27371;42.686;23.362;2023-03-29T05:03:32;162633.81;;;1.67;50.72
41688;BME280;27371;42.686;23.362;2023-03-29T05:06:06;162690.94;;;1.89;49.79
41688;BME280;27371;42.686;23.362;2023-03-29T05:08:33;162736.13;;;2.06;48.67
41688;BME280;27371;42.686;23.362;2023-03-29T05:10:59;162826.50;;;2.41;47.75
41688;BME280;27371;42.686;23.362;2023-03-29T05:13:26;162866.38;;;2.56;46.97
41688;BME280;27371;42.686;23.362;2023-03-29T05:15:51;162918.25;;;2.76;46.38
41688;BME280;27371;42.686;23.362;2023-03-29T05:18:17;163008.66;;;3.11;46.21
41688;BME280;27371;42.686;23.362;2023-03-29T05:20:42;162979.41;;;3.00;44.68
41688;BME280;27371;42.686;23.362;2023-03-29T05:23:07;162967.47;;;2.95;44.38
41688;BME280;27371;42.686;23.362;2023-03-29T05:25:33;162892.97;;;2.66;44.70
41688;BME280;27371;42.686;23.362;2023-03-29T05:27:59;162826.50;;;2.41;45.30
41688;BME280;27371;42.686;23.362;2023-03-29T05:30:25;162833.16;;;2.43;45.44
41688;BME280;27371;42.686;23.362;2023-03-29T05:32:51;162859.75;;;2.54;45.20
41688;BME280;27371;42.686;23.362;2023-03-29T05:35:17;162862.41;;;2.55;45.19
41688;BME280;27371;42.686;23.362;2023-03-29T05:37:42;162882.34;;;2.62;45.10
41688;BME280;27371;42.686;23.362;2023-03-29T05:40:08;162815.84;;;2.37;45.32
41688;BME280;27371;42.686;23.362;2023-03-29T05:42:34;162753.41;;;2.13;45.98
41688;BME280;27371;42.686;23.362;2023-03-29T05:44:59;162675.00;;;1.83;46.64
41688;BME280;27371;42.686;23.362;2023-03-29T05:47:25;162641.78;;;1.70;47.21
41688;BME280;27371;42.686;23.362;2023-03-29T05:49:50;162680.28;;;1.85;47.50
41688;BME280;27371;42.686;23.362;2023-03-29T05:52:16;162704.25;;;1.94;47.01
41688;BME280;27371;42.686;23.362;2023-03-29T05:54:42;162827.84;;;2.41;47.14
41688;BME280;27371;42.686;23.362;2023-03-29T05:57:08;162942.19;;;2.85;46.16
41688;BME280;27371;42.686;23.362;2023-03-29T05:59:33;162986.06;;;3.02;44.50
41688;BME280;27371;42.686;23.362;2023-03-29T06:01:59;163033.94;;;3.21;44.19
41688;BME280;27371;42.686;23.362;2023-03-29T06:04:24;163101.75;;;3.47;44.42
41688;BME280;27371;42.686;23.362;2023-03-29T06:06:50;163039.28;;;3.23;43.70
41688;BME280;27371;42.686;23.362;2023-03-29T06:09:17;162964.78;;;2.94;43.79
41688;BME280;27371;42.686;23.362;2023-03-29T06:11:45;162885.00;;;2.63;44.74
41688;BME280;27371;42.686;23.362;2023-03-29T06:14:11;162845.09;;;2.48;45.16
41688;BME280;27371;42.686;23.362;2023-03-29T06:16:38;162752.09;;;2.12;45.10
41688;BME280;27371;42.686;23.362;2023-03-29T06:19:04;162811.91;;;2.35;45.58
41688;BME280;27371;42.686;23.362;2023-03-29T06:21:31;162870.38;;;2.58;44.78
41688;BME280;27371;42.686;23.362;2023-03-29T06:23:57;162907.59;;;2.72;44.42
41688;BME280;27371;42.686;23.362;2023-03-29T06:26:23;162966.09;;;2.95;43.58
41688;BME280;27371;42.686;23.362;2023-03-29T06:28:49;162943.50;;;2.86;43.36
41688;BME280;27371;42.686;23.362;2023-03-29T06:31:14;162990.06;;;3.04;43.20
41688;BME280;27371;42.686;23.362;2023-03-29T06:33:40;163089.81;;;3.42;43.35
41688;BME280;27371;42.686;23.362;2023-03-29T06:36:08;163115.06;;;3.52;42.25
41688;BME280;27371;42.686;23.362;2023-03-29T06:38:34;163111.09;;;3.50;42.31
41688;BME280;27371;42.686;23.362;2023-03-29T06:41:08;163037.91;;;3.22;42.12
41688;BME280;27371;42.686;23.362;2023-03-29T06:43:37;163023.28;;;3.17;42.18
41688;BME280;27371;42.686;23.362;2023-03-29T06:46:03;162951.47;;;2.89;42.61
41688;BME280;27371;42.686;23.362;2023-03-29T06:48:29;162928.88;;;2.80;43.17
41688;BME280;27371;42.686;23.362;2023-03-29T06:50:55;162914.25;;;2.75;42.96
41688;BME280;27371;42.686;23.362;2023-03-29T06:53:20;162811.91;;;2.35;43.49
41688;BME280;27371;42.686;23.362;2023-03-29T06:55:46;162875.72;;;2.60;43.92
41688;BME280;27371;42.686;23.362;2023-03-29T06:58:12;162954.16;;;2.90;43.57
41688;BME280;27371;42.686;23.362;2023-03-29T07:00:38;162992.72;;;3.05;43.00
41688;BME280;27371;42.686;23.362;2023-03-29T07:03:06;163048.56;;;3.26;42.41
41688;BME280;27371;42.686;23.362;2023-03-29T07:05:32;163043.25;;;3.24;41.68
41688;BME280;27371;42.686;23.362;2023-03-29T07:08:00;163112.44;;;3.51;41.62
41688;BME280;27371;42.686;23.362;2023-03-29T07:10:36;163166.94;;;3.72;41.63
41688;BME280;27371;42.686;23.362;2023-03-29T07:13:04;163166.94;;;3.72;40.77
41688;BME280;27371;42.686;23.362;2023-03-29T07:15:33;163162.97;;;3.70;40.96
41688;BME280;27371;42.686;23.362;2023-03-29T07:17:59;163135.03;;;3.60;40.49
41688;BME280;27371;42.686;23.362;2023-03-29T07:20:27;163103.09;;;3.47;40.17
41688;BME280;27371;42.686;23.362;2023-03-29T07:22:53;163136.34;;;3.60;40.68
41688;BME280;27371;42.686;23.362;2023-03-29T07:25:23;163188.22;;;3.80;40.50
41688;BME280;27371;42.686;23.362;2023-03-29T07:27:49;163225.53;;;3.94;40.00
41688;BME280;27371;42.686;23.362;2023-03-29T07:30:21;163210.91;;;3.89;39.47
41688;BME280;27371;42.686;23.362;2023-03-29T07:32:49;163288.03;;;4.18;38.86
41688;BME280;27371;42.686;23.362;2023-03-29T07:35:18;163353.25;;;4.43;39.26
41688;BME280;27371;42.686;23.362;2023-03-29T07:37:44;163374.56;;;4.52;38.98
41688;BME280;27371;42.686;23.362;2023-03-29T07:40:15;163415.84;;;4.67;38.49
41688;BME280;27371;42.686;23.362;2023-03-29T07:42:50;163463.78;;;4.86;38.35
41688;BME280;27371;42.686;23.362;2023-03-29T07:45:16;163437.13;;;4.76;37.14
41688;BME280;27371;42.686;23.362;2023-03-29T07:47:45;163393.22;;;4.59;37.03
41688;BME280;27371;42.686;23.362;2023-03-29T07:50:12;163543.69;;;5.17;36.82
41688;BME280;27371;42.686;23.362;2023-03-29T07:52:38;163568.97;;;5.26;36.82
41688;BME280;27371;42.686;23.362;2023-03-29T07:55:05;163584.97;;;5.32;36.51
41688;BME280;27371;42.686;23.362;2023-03-29T07:57:32;163522.38;;;5.08;36.38
41688;BME280;27371;42.686;23.362;2023-03-29T07:59:58;163531.69;;;5.12;35.91
41688;BME280;27371;42.686;23.362;2023-03-29T08:02:23;163550.34;;;5.19;35.68
41688;BME280;27371;42.686;23.362;2023-03-29T08:04:49;163571.66;;;5.27;35.52
41688;BME280;27371;42.686;23.362;2023-03-29T08:07:16;163590.28;;;5.34;35.11
41688;BME280;27371;42.686;23.362;2023-03-29T08:09:45;163552.97;;;5.20;34.89
41688;BME280;27371;42.686;23.362;2023-03-29T08:12:11;163559.66;;;5.23;34.96
41688;BME280;27371;42.686;23.362;2023-03-29T08:14:36;163552.97;;;5.20;34.68
41688;BME280;27371;42.686;23.362;2023-03-29T08:17:02;163526.34;;;5.10;34.32
41688;BME280;27371;42.686;23.362;2023-03-29T08:19:28;163558.31;;;5.22;34.18
41688;BME280;27371;42.686;23.362;2023-03-29T08:21:54;163510.38;;;5.04;34.01
41688;BME280;27371;42.686;23.362;2023-03-29T08:24:19;163530.34;;;5.11;33.94
41688;BME280;27371;42.686;23.362;2023-03-29T08:26:45;163580.97;;;5.31;34.07
41688;BME280;27371;42.686;23.362;2023-03-29T08:29:11;163595.59;;;5.36;34.69
41688;BME280;27371;42.686;23.362;2023-03-29T08:31:36;163568.97;;;5.26;35.00
41688;BME280;27371;42.686;23.362;2023-03-29T08:34:02;163603.59;;;5.40;34.20
41688;BME280;27371;42.686;23.362;2023-03-29T08:36:27;163643.56;;;5.55;32.96
41688;BME280;27371;42.686;23.362;2023-03-29T08:38:53;163648.91;;;5.57;32.96
41688;BME280;27371;42.686;23.362;2023-03-29T08:47:38;163792.88;;;6.12;31.50
41688;BME280;27371;42.686;23.362;2023-03-29T08:50:07;163752.88;;;5.97;30.55
41688;BME280;27371;42.686;23.362;2023-03-29T08:52:37;163691.50;;;5.73;29.52
41688;BME280;27371;42.686;23.362;2023-03-29T08:55:27;163684.88;;;5.71;29.70
41688;BME280;27371;42.686;23.362;2023-03-29T08:57:58;163699.53;;;5.76;29.62
41688;BME280;27371;42.686;23.362;2023-03-29T09:00:42;163750.22;;;5.96;29.49
41688;BME280;27371;42.686;23.362;2023-03-29T09:03:22;163748.84;;;5.95;30.01
41688;BME280;27371;42.686;23.362;2023-03-29T09:05:53;163792.88;;;6.12;29.87
41688;BME280;27371;42.686;23.362;2023-03-29T09:08:21;163786.19;;;6.10;30.26
41688;BME280;27371;42.686;23.362;2023-03-29T09:13:58;163846.16;;;6.33;29.04
41688;BME280;27371;42.686;23.362;2023-03-29T09:22:35;163911.47;;;6.58;28.91
41688;BME280;27371;42.686;23.362;2023-03-29T09:25:23;163880.81;;;6.46;28.80
41688;BME280;27371;42.686;23.362;2023-03-29T09:28:15;163886.16;;;6.48;28.76
41688;BME280;27371;42.686;23.362;2023-03-29T09:31:04;163918.13;;;6.60;28.55
41688;BME280;27371;42.686;23.362;2023-03-29T09:33:43;163928.81;;;6.64;28.69
41688;BME280;27371;42.686;23.362;2023-03-29T09:38:40;163998.09;;;6.91;28.58
41688;BME280;27371;42.686;23.362;2023-03-29T09:41:20;164012.78;;;6.97;27.94
41688;BME280;27371;42.686;23.362;2023-03-29T09:43:49;163987.47;;;6.87;28.07
41688;BME280;27371;42.686;23.362;2023-03-29T09:46:37;163967.47;;;6.79;27.86
41688;BME280;27371;42.686;23.362;2023-03-29T09:49:08;163936.81;;;6.67;28.17
41688;BME280;27371;42.686;23.362;2023-03-29T09:51:36;163964.81;;;6.78;27.12
41688;BME280;27371;42.686;23.362;2023-03-29T09:54:02;163943.47;;;6.70;27.32
41688;BME280;27371;42.686;23.362;2023-03-29T09:56:28;163900.81;;;6.54;27.26
41688;BME280;27371;42.686;23.362;2023-03-29T09:58:54;163888.81;;;6.49;27.52
41688;BME280;27371;42.686;23.362;2023-03-29T10:01:20;163866.16;;;6.40;28.32
41688;BME280;27371;42.686;23.362;2023-03-29T10:03:52;163803.50;;;6.16;28.11
41688;BME280;27371;42.686;23.362;2023-03-29T10:06:19;163827.47;;;6.25;28.20
41688;BME280;27371;42.686;23.362;2023-03-29T10:08:49;163836.84;;;6.29;28.58
41688;BME280;27371;42.686;23.362;2023-03-29T10:11:28;163890.13;;;6.50;27.80
41688;BME280;27371;42.686;23.362;2023-03-29T10:13:54;163920.78;;;6.61;27.71
41688;BME280;27371;42.686;23.362;2023-03-29T10:16:38;163923.47;;;6.62;28.22
41688;BME280;27371;42.686;23.362;2023-03-29T10:19:32;163911.47;;;6.58;28.75
41688;BME280;27371;42.686;23.362;2023-03-29T10:22:05;163904.78;;;6.55;27.95
41688;BME280;27371;42.686;23.362;2023-03-29T10:24:31;163906.09;;;6.56;28.22
41688;BME280;27371;42.686;23.362;2023-03-29T10:27:03;163898.13;;;6.53;27.87
41688;BME280;27371;42.686;23.362;2023-03-29T10:29:36;163872.81;;;6.43;27.60
41688;BME280;27371;42.686;23.362;2023-03-29T10:32:13;163866.16;;;6.40;27.21
41688;BME280;27371;42.686;23.362;2023-03-29T10:34:39;163854.13;;;6.36;27.72
41688;BME280;27371;42.686;23.362;2023-03-29T10:37:07;163855.47;;;6.36;27.78
41688;BME280;27371;42.686;23.362;2023-03-29T10:39:35;163839.47;;;6.30;28.11
41688;BME280;27371;42.686;23.362;2023-03-29T10:42:02;163823.50;;;6.24;28.50
41688;BME280;27371;42.686;23.362;2023-03-29T10:44:34;163823.50;;;6.24;28.76
41688;BME280;27371;42.686;23.362;2023-03-29T10:47:11;163823.50;;;6.24;28.78
41688;BME280;27371;42.686;23.362;2023-03-29T10:49:41;163764.88;;;6.01;28.72
41688;BME280;27371;42.686;23.362;2023-03-29T10:52:07;163803.50;;;6.16;28.60
41688;BME280;27371;42.686;23.362;2023-03-29T10:54:34;163858.16;;;6.37;27.99
41688;BME280;27371;42.686;23.362;2023-03-29T10:57:04;163919.44;;;6.61;27.86
41688;BME280;27371;42.686;23.362;2023-03-29T11:02:45;163907.47;;;6.56;27.15
41688;BME280;27371;42.686;23.362;2023-03-29T11:08:07;163795.50;;;6.13;27.85
41688;BME280;27371;42.686;23.362;2023-03-29T11:26:54;163882.13;;;6.46;26.94
41688;BME280;27371;42.686;23.362;2023-03-29T11:35:29;163936.81;;;6.67;27.81
41688;BME280;27371;42.686;23.362;2023-03-29T11:38:11;163964.81;;;6.78;27.90
41688;BME280;27371;42.686;23.362;2023-03-29T11:40:48;163974.13;;;6.82;27.64
41688;BME280;27371;42.686;23.362;2023-03-29T11:43:29;164004.78;;;6.94;27.75
41688;BME280;27371;42.686;23.362;2023-03-29T11:46:01;164008.81;;;6.95;27.98
41688;BME280;27371;42.686;23.362;2023-03-29T11:48:39;164039.44;;;7.07;27.75
41688;BME280;27371;42.686;23.362;2023-03-29T11:51:17;164051.47;;;7.11;27.32
41688;BME280;27371;42.686;23.362;2023-03-29T11:53:53;164046.13;;;7.09;27.23
41688;BME280;27371;42.686;23.362;2023-03-29T11:59:42;164083.44;;;7.24;26.55
41688;BME280;27371;42.686;23.362;2023-03-29T12:04:54;164107.44;;;7.33;26.53
41688;BME280;27371;42.686;23.362;2023-03-29T12:07:42;164080.81;;;7.23;26.25
41688;BME280;27371;42.686;23.362;2023-03-29T12:10:22;164036.81;;;7.06;26.49
41688;BME280;27371;42.686;23.362;2023-03-29T12:16:15;164024.78;;;7.01;26.60
41688;BME280;27371;42.686;23.362;2023-03-29T12:18:45;164020.78;;;7.00;26.48
41688;BME280;27371;42.686;23.362;2023-03-29T12:21:22;164043.44;;;7.08;26.23
41688;BME280;27371;42.686;23.362;2023-03-29T12:23:49;164042.09;;;7.08;25.81
41688;BME280;27371;42.686;23.362;2023-03-29T12:32:28;164132.81;;;7.43;25.39
41688;BME280;27371;42.686;23.362;2023-03-29T12:35:01;164159.50;;;7.53;25.80
41688;BME280;27371;42.686;23.362;2023-03-29T12:37:31;164168.81;;;7.56;25.93
41688;BME280;27371;42.686;23.362;2023-03-29T12:40:23;164167.50;;;7.56;26.36
41688;BME280;27371;42.686;23.362;2023-03-29T12:43:04;164182.16;;;7.62;26.45
41688;BME280;27371;42.686;23.362;2023-03-29T12:45:36;164184.81;;;7.63;26.45
41688;BME280;27371;42.686;23.362;2023-03-29T12:48:02;164216.84;;;7.75;25.96
41688;BME280;27371;42.686;23.362;2023-03-29T12:50:32;164234.16;;;7.81;26.63
41688;BME280;27371;42.686;23.362;2023-03-29T12:53:26;164275.53;;;7.97;26.49
41688;BME280;27371;42.686;23.362;2023-03-29T13:01:30;164347.59;;;8.25;25.97
41688;BME280;27371;42.686;23.362;2023-03-29T13:12:03;164362.28;;;8.31;26.44
41688;BME280;27371;42.686;23.362;2023-03-29T13:14:33;164359.56;;;8.30;26.19
41688;BME280;27371;42.686;23.362;2023-03-29T13:17:01;164346.28;;;8.24;25.68
41688;BME280;27371;42.686;23.362;2023-03-29T13:19:36;164363.59;;;8.31;25.50
41688;BME280;27371;42.686;23.362;2023-03-29T13:22:24;164278.19;;;7.98;25.54
41688;BME280;27371;42.686;23.362;2023-03-29T13:25:25;164204.84;;;7.70;26.37
41688;BME280;27371;42.686;23.362;2023-03-29T13:36:29;164152.81;;;7.50;26.92
41688;BME280;27371;42.686;23.362;2023-03-29T13:39:01;164178.13;;;7.60;26.54
41688;BME280;27371;42.686;23.362;2023-03-29T13:41:30;164214.16;;;7.74;26.79
41688;BME280;27371;42.686;23.362;2023-03-29T13:43:56;164240.84;;;7.84;26.57
41688;BME280;27371;42.686;23.362;2023-03-29T13:46:38;164247.53;;;7.87;26.46
41688;BME280;27371;42.686;23.362;2023-03-29T13:51:42;164311.56;;;8.11;25.87
41688;BME280;27371;42.686;23.362;2023-03-29T13:56:53;164351.56;;;8.26;25.32
41688;BME280;27371;42.686;23.362;2023-03-29T13:59:29;164355.59;;;8.28;25.05
41688;BME280;27371;42.686;23.362;2023-03-29T14:01:58;164346.28;;;8.24;24.92
41688;BME280;27371;42.686;23.362;2023-03-29T14:04:45;164322.22;;;8.15;25.39
41688;BME280;27371;42.686;23.362;2023-03-29T14:07:22;164320.91;;;8.15;25.50
41688;BME280;27371;42.686;23.362;2023-03-29T14:09:51;164331.59;;;8.19;25.25
41688;BME280;27371;42.686;23.362;2023-03-29T14:12:19;164342.25;;;8.23;25.24
41688;BME280;27371;42.686;23.362;2023-03-29T14:14:45;164367.63;;;8.33;25.05
41688;BME280;27371;42.686;23.362;2023-03-29T14:17:29;164367.63;;;8.33;24.12
41688;BME280;27371;42.686;23.362;2023-03-29T14:19:59;164363.59;;;8.31;23.85
41688;BME280;27371;42.686;23.362;2023-03-29T14:22:29;164331.59;;;8.19;23.95
41688;BME280;27371;42.686;23.362;2023-03-29T14:24:55;164348.91;;;8.25;24.21
41688;BME280;27371;42.686;23.362;2023-03-29T14:27:22;164356.91;;;8.29;24.53
41688;BME280;27371;42.686;23.362;2023-03-29T14:29:50;164364.94;;;8.32;24.79
41688;BME280;27371;42.686;23.362;2023-03-29T14:32:26;164330.22;;;8.18;24.88
41688;BME280;27371;42.686;23.362;2023-03-29T14:34:52;164272.84;;;7.96;25.36
41688;BME280;27371;42.686;23.362;2023-03-29T14:37:22;164272.84;;;7.96;25.57
41688;BME280;27371;42.686;23.362;2023-03-29T14:39:49;164262.19;;;7.92;25.26
41688;BME280;27371;42.686;23.362;2023-03-29T14:42:20;164263.53;;;7.93;24.89
41688;BME280;27371;42.686;23.362;2023-03-29T14:44:49;164260.88;;;7.92;25.08
41688;BME280;27371;42.686;23.362;2023-03-29T14:47:29;164286.19;;;8.01;24.77